createdAt,value
2022-10-27T00:00:58.988Z,964.29
2022-10-27T00:03:58.675Z,964.26
2022-10-27T00:06:59.048Z,964.23
2022-10-27T00:09:58.714Z,964.27
2022-10-27T00:12:58.740Z,964.3
2022-10-27T00:15:58.683Z,964.25
2022-10-27T00:18:58.729Z,964.32
2022-10-27T00:21:58.603Z,964.36
2022-10-27T00:24:58.614Z,964.29
2022-10-27T00:27:58.489Z,964.22
2022-10-27T00:30:58.740Z,964.26
2022-10-27T00:33:59.153Z,964.28
2022-10-27T00:36:59.319Z,964.39
2022-10-27T00:39:59.298Z,964.33
2022-10-27T00:42:59.264Z,964.41
2022-10-27T00:45:58.294Z,964.45
2022-10-27T00:48:59.252Z,964.38
2022-10-27T00:51:59.230Z,964.42
2022-10-27T00:54:58.118Z,964.39
2022-10-27T00:57:59.038Z,964.34
2022-10-27T01:00:58.925Z,964.35
2022-10-27T01:03:58.380Z,964.46
2022-10-27T01:06:58.940Z,964.42
2022-10-27T01:09:58.921Z,964.44
2022-10-27T01:12:58.403Z,964.41
2022-10-27T01:15:58.728Z,964.47
2022-10-27T01:18:59.109Z,964.45
2022-10-27T01:21:59.072Z,964.47
2022-10-27T01:24:59.206Z,964.51
2022-10-27T01:27:59.072Z,964.53
2022-10-27T01:30:59.767Z,964.5
2022-10-27T01:33:58.937Z,964.45
2022-10-27T01:36:58.549Z,964.5
2022-10-27T01:39:58.679Z,964.51
2022-10-27T01:42:58.676Z,964.45
2022-10-27T01:45:59.216Z,964.42
2022-10-27T01:48:59.165Z,964.35
2022-10-27T01:51:59.284Z,964.47
2022-10-27T01:54:58.293Z,964.37
2022-10-27T01:57:59.096Z,964.24
2022-10-27T02:00:59.310Z,964.31
2022-10-27T02:03:59.177Z,964.35
2022-10-27T02:06:59.007Z,964.27
2022-10-27T02:09:58.949Z,964.29
2022-10-27T02:12:58.474Z,964.28
2022-10-27T02:15:58.813Z,964.32
2022-10-27T02:18:59.222Z,964.31
2022-10-27T02:21:59.171Z,964.37
2022-10-27T02:24:58.138Z,964.19
2022-10-27T02:27:58.783Z,964.29
2022-10-27T02:30:59.802Z,964.25
2022-10-27T02:33:58.655Z,964.27
2022-10-27T02:36:59.022Z,964.31
2022-10-27T02:39:59.524Z,964.29
2022-10-27T02:42:58.691Z,964.35
2022-10-27T02:45:58.772Z,964.39
2022-10-27T02:48:59.254Z,964.35
2022-10-27T02:51:59.193Z,964.32
2022-10-27T02:54:58.788Z,964.35
2022-10-27T02:57:58.776Z,964.35
2022-10-27T03:00:59.147Z,964.28
2022-10-27T03:03:58.668Z,964.28
2022-10-27T03:06:59.399Z,964.25
2022-10-27T03:09:58.941Z,964.25
2022-10-27T03:12:59.066Z,964.27
2022-10-27T03:15:59.842Z,964.28
2022-10-27T03:18:59.294Z,964.35
2022-10-27T03:21:59.063Z,964.31
2022-10-27T03:24:59.344Z,964.19
2022-10-27T03:27:58.634Z,964.28
2022-10-27T03:30:58.860Z,964.32
2022-10-27T03:33:59.501Z,964.42
2022-10-27T03:36:58.778Z,964.39
2022-10-27T03:39:58.709Z,964.45
2022-10-27T03:42:59.123Z,964.48
2022-10-27T03:46:00.950Z,964.45
2022-10-27T03:48:59.410Z,964.46
2022-10-27T03:51:58.675Z,964.51
2022-10-27T03:54:58.576Z,964.54
2022-10-27T03:57:58.605Z,964.51
2022-10-27T04:00:58.853Z,964.46
2022-10-27T04:03:59.069Z,964.44
2022-10-27T04:06:58.791Z,964.5
2022-10-27T04:09:59.307Z,964.51
2022-10-27T04:12:58.980Z,964.46
2022-10-27T04:15:59.424Z,964.53
2022-10-27T04:18:59.205Z,964.56
2022-10-27T04:21:58.425Z,964.54
2022-10-27T04:24:59.154Z,964.56
2022-10-27T04:27:58.696Z,964.57
2022-10-27T04:30:58.918Z,964.54
2022-10-27T04:33:59.117Z,964.59
2022-10-27T04:36:59.064Z,964.6
2022-10-27T04:39:59.034Z,964.6
2022-10-27T04:42:59.154Z,964.57
2022-10-27T04:45:59.052Z,964.65
2022-10-27T04:48:59.467Z,964.54
2022-10-27T04:51:59.269Z,964.57
2022-10-27T04:54:59.003Z,964.66
2022-10-27T04:57:59.769Z,964.73
2022-10-27T05:00:59.948Z,964.6
2022-10-27T05:03:59.753Z,964.59
2022-10-27T05:06:58.642Z,964.51
2022-10-27T05:09:58.775Z,964.54
2022-10-27T05:12:58.624Z,964.54
2022-10-27T05:15:59.730Z,964.5
2022-10-27T05:18:58.885Z,964.5
2022-10-27T05:21:59.442Z,964.51
2022-10-27T05:24:59.520Z,964.49
2022-10-27T05:27:59.180Z,964.5
2022-10-27T05:30:59.174Z,964.55
2022-10-27T05:36:59.240Z,964.55
2022-10-27T05:39:59.026Z,964.35
2022-10-27T05:42:58.707Z,964.39
2022-10-27T05:46:00.161Z,964.42
2022-10-27T05:48:59.609Z,964.41
2022-10-27T05:51:59.274Z,964.39
2022-10-27T05:54:58.985Z,964.46
2022-10-27T05:57:58.961Z,964.27
2022-10-27T06:00:59.612Z,964.32
2022-10-27T06:03:58.994Z,964.31
2022-10-27T06:06:59.743Z,964.3
2022-10-27T06:09:59.940Z,964.3
2022-10-27T06:12:59.075Z,964.36
2022-10-27T06:15:59.621Z,964.4
2022-10-27T06:18:59.509Z,964.37
2022-10-27T06:21:59.099Z,964.43
2022-10-27T06:24:59.508Z,964.42
2022-10-27T06:27:59.529Z,964.5
2022-10-27T06:30:58.864Z,964.51
2022-10-27T06:33:58.961Z,964.55
2022-10-27T06:36:58.345Z,964.61
2022-10-27T06:39:59.540Z,964.52
2022-10-27T06:43:06.742Z,964.65
2022-10-27T06:46:01.805Z,964.71
2022-10-27T06:48:58.839Z,964.79
2022-10-27T06:51:59.141Z,964.77
2022-10-27T06:54:58.295Z,964.78
2022-10-27T06:57:59.251Z,964.77
2022-10-27T07:00:59.685Z,964.83
2022-10-27T07:03:59.139Z,964.77
2022-10-27T07:06:59.452Z,964.86
2022-10-27T07:09:58.767Z,964.86
2022-10-27T07:12:58.936Z,964.85
2022-10-27T07:15:59.360Z,964.92
2022-10-27T07:18:59.031Z,964.89
2022-10-27T07:21:58.817Z,964.87
2022-10-27T07:24:58.673Z,964.86
2022-10-27T07:27:58.753Z,964.8
2022-10-27T07:30:58.741Z,964.8
2022-10-27T07:33:58.628Z,964.95
2022-10-27T07:36:59.301Z,964.99
2022-10-27T07:39:58.751Z,964.96
2022-10-27T07:43:00.724Z,965.05
2022-10-27T07:45:58.698Z,965.04
2022-10-27T07:48:59.395Z,965.02
2022-10-27T07:51:58.874Z,964.95
2022-10-27T07:54:58.759Z,965.06
2022-10-27T07:57:58.432Z,965.06
2022-10-27T08:00:59.355Z,965.12
2022-10-27T08:03:58.815Z,965.09
2022-10-27T08:06:59.287Z,965.1
2022-10-27T08:09:58.601Z,965.23
2022-10-27T08:12:58.326Z,965.23
2022-10-27T08:15:59.696Z,965.19
2022-10-27T08:18:59.112Z,965.19
2022-10-27T08:21:59.555Z,965.17
2022-10-27T08:24:58.951Z,965.16
2022-10-27T08:27:58.765Z,965.24
2022-10-27T08:30:58.924Z,965.14
2022-10-27T08:33:58.955Z,965.16
2022-10-27T08:36:58.668Z,965.2
2022-10-27T08:39:58.936Z,965.16
2022-10-27T08:42:58.812Z,965.23
2022-10-27T08:45:59.501Z,965.24
2022-10-27T08:48:58.608Z,965.23
2022-10-27T08:51:58.527Z,965.15
2022-10-27T08:54:58.521Z,965.15
2022-10-27T08:57:58.456Z,965.15
2022-10-27T09:00:59.351Z,965.15
2022-10-27T09:03:59.373Z,965.17
2022-10-27T09:06:58.658Z,965.16
2022-10-27T09:09:59.358Z,965.15
2022-10-27T09:12:59.415Z,965.11
2022-10-27T09:15:59.273Z,965.07
2022-10-27T09:18:58.471Z,965.07
2022-10-27T09:21:58.983Z,965.13
2022-10-27T09:24:58.500Z,965.09
2022-10-27T09:27:58.126Z,965.11
2022-10-27T09:30:59.049Z,965.03
2022-10-27T09:33:59.010Z,965.03
2022-10-27T09:36:58.887Z,964.94
2022-10-27T09:39:58.917Z,965.02
2022-10-27T09:42:58.848Z,964.97
2022-10-27T09:45:58.835Z,964.98
2022-10-27T09:48:58.646Z,964.98
2022-10-27T09:51:59.520Z,965.03
2022-10-27T09:54:58.740Z,964.99
2022-10-27T09:57:58.663Z,965.12
2022-10-27T10:00:59.920Z,965.08
2022-10-27T10:06:58.360Z,965.03
2022-10-27T10:09:59.065Z,965.06
2022-10-27T10:12:59.291Z,964.99
2022-10-27T10:15:59.613Z,965.1
2022-10-27T10:18:58.372Z,965.04
2022-10-27T10:21:59.191Z,965.07
2022-10-27T10:24:58.867Z,965.07
2022-10-27T10:27:59.240Z,965.01
2022-10-27T10:30:59.061Z,965.07
2022-10-27T10:33:58.568Z,965.05
2022-10-27T10:36:59.043Z,965.03
2022-10-27T10:39:58.069Z,964.94
2022-10-27T10:42:59.207Z,965.04
2022-10-27T10:45:58.975Z,965.0
2022-10-27T10:48:59.105Z,964.94
2022-10-27T10:51:58.962Z,964.9
2022-10-27T10:54:58.752Z,964.93
2022-10-27T10:57:58.405Z,964.93
2022-10-27T11:00:58.936Z,964.85
2022-10-27T11:04:17.732Z,964.72
2022-10-27T11:06:58.806Z,964.84
2022-10-27T11:09:58.636Z,964.75
2022-10-27T11:12:59.368Z,964.76
2022-10-27T11:15:58.845Z,964.57
2022-10-27T11:18:58.275Z,964.67
2022-10-27T11:21:59.159Z,964.67
2022-10-27T11:24:58.562Z,964.67
2022-10-27T11:27:59.334Z,964.66
2022-10-27T11:31:00.525Z,964.68
2022-10-27T11:33:58.690Z,964.6
2022-10-27T11:36:58.726Z,964.65
2022-10-27T11:39:58.763Z,964.64
2022-10-27T11:42:59.107Z,964.65
2022-10-27T11:45:59.331Z,964.66
2022-10-27T11:48:59.047Z,964.66
2022-10-27T11:51:59.187Z,964.7
2022-10-27T11:54:59.464Z,964.67
2022-10-27T11:57:59.805Z,964.7
2022-10-27T12:00:59.513Z,964.57
2022-10-27T12:03:58.354Z,964.57
2022-10-27T12:06:58.884Z,964.5
2022-10-27T12:09:58.533Z,964.57
2022-10-27T12:12:58.717Z,964.63
2022-10-27T12:15:58.832Z,964.62
2022-10-27T12:18:58.726Z,964.53
2022-10-27T12:21:58.627Z,964.63
2022-10-27T12:24:58.919Z,964.56
2022-10-27T12:27:58.982Z,964.53
2022-10-27T12:31:00.975Z,964.65
2022-10-27T12:33:59.356Z,964.57
2022-10-27T12:36:58.652Z,964.47
2022-10-27T12:39:59.126Z,964.41
2022-10-27T12:42:59.493Z,964.47
2022-10-27T12:45:59.342Z,964.36
2022-10-27T12:48:59.262Z,964.46
2022-10-27T12:51:58.851Z,964.4
2022-10-27T12:54:58.817Z,964.43
2022-10-27T12:57:59.187Z,964.33
2022-10-27T13:00:59.099Z,964.3
2022-10-27T13:03:59.261Z,964.35
2022-10-27T13:06:58.951Z,964.27
2022-10-27T13:09:59.056Z,964.27
2022-10-27T13:12:59.001Z,964.24
2022-10-27T13:15:59.159Z,964.14
2022-10-27T13:18:58.983Z,964.08
2022-10-27T13:21:58.716Z,964.15
2022-10-27T13:24:58.961Z,964.11
2022-10-27T13:27:59.515Z,963.95
2022-10-27T13:30:58.852Z,963.95
2022-10-27T13:33:59.508Z,963.96
2022-10-27T13:36:58.941Z,963.98
2022-10-27T13:39:59.514Z,963.9
2022-10-27T13:42:59.095Z,963.9
2022-10-27T13:45:59.642Z,963.89
2022-10-27T13:48:58.580Z,963.86
2022-10-27T13:52:06.265Z,963.85
2022-10-27T13:54:59.424Z,963.97
2022-10-27T13:57:59.288Z,963.93
2022-10-27T14:00:59.441Z,963.92
2022-10-27T14:03:59.163Z,963.95
2022-10-27T14:06:59.426Z,963.89
2022-10-27T14:09:59.242Z,963.97
2022-10-27T14:12:59.154Z,963.94
2022-10-27T14:15:59.499Z,963.88
2022-10-27T14:19:02.142Z,963.94
2022-10-27T14:21:59.917Z,963.97
2022-10-27T14:24:59.006Z,963.9
2022-10-27T14:27:58.772Z,963.95
2022-10-27T14:30:59.038Z,963.9
2022-10-27T14:33:58.853Z,963.92
2022-10-27T14:36:59.673Z,963.93
2022-10-27T14:39:59.161Z,963.89
2022-10-27T14:42:58.691Z,964.0
2022-10-27T14:45:59.748Z,963.97
2022-10-27T14:48:58.762Z,964.01
2022-10-27T14:51:59.800Z,963.94
2022-10-27T14:54:59.331Z,964.04
2022-10-27T14:57:58.971Z,963.94
2022-10-27T15:00:59.541Z,964.02
2022-10-27T15:03:58.706Z,963.9
2022-10-27T15:06:58.464Z,963.93
2022-10-27T15:09:59.582Z,963.99
2022-10-27T15:12:58.435Z,963.97
2022-10-27T15:15:59.504Z,963.97
2022-10-27T15:18:59.159Z,963.88
2022-10-27T15:21:59.132Z,963.87
2022-10-27T15:24:58.807Z,963.88
2022-10-27T15:27:59.127Z,963.8
2022-10-27T15:30:59.155Z,963.84
2022-10-27T15:33:59.081Z,963.89
2022-10-27T15:36:58.946Z,963.96
2022-10-27T15:39:59.521Z,963.99
2022-10-27T15:42:59.210Z,963.96
2022-10-27T15:46:00.128Z,963.99
2022-10-27T15:48:59.411Z,963.94
2022-10-27T15:51:59.245Z,963.87
2022-10-27T15:55:01.027Z,963.95
2022-10-27T15:57:58.932Z,963.83
2022-10-27T16:00:59.828Z,963.89
2022-10-27T16:03:59.608Z,963.96
2022-10-27T16:06:59.586Z,963.92
2022-10-27T16:09:59.705Z,963.95
2022-10-27T16:12:59.495Z,963.86
2022-10-27T16:15:59.339Z,963.89
2022-10-27T16:18:59.114Z,963.89
2022-10-27T16:21:59.312Z,963.91
2022-10-27T16:24:59.341Z,963.91
2022-10-27T16:27:58.697Z,963.94
2022-10-27T16:30:59.536Z,963.98
2022-10-27T16:33:59.510Z,964.02
2022-10-27T16:37:00.028Z,964.01
2022-10-27T16:39:59.164Z,963.97
2022-10-27T16:42:59.971Z,963.94
2022-10-27T16:45:59.162Z,963.97
2022-10-27T16:48:59.046Z,963.93
2022-10-27T16:51:58.834Z,963.94
2022-10-27T16:54:59.037Z,963.93
2022-10-27T16:57:59.707Z,964.0
2022-10-27T17:00:59.347Z,963.97
2022-10-27T17:03:58.736Z,963.93
2022-10-27T17:06:58.596Z,964.03
2022-10-27T17:09:58.649Z,964.03
2022-10-27T17:12:59.562Z,963.93
2022-10-27T17:15:59.655Z,964.05
2022-10-27T17:18:59.040Z,963.96
2022-10-27T17:21:59.423Z,964.05
2022-10-27T17:24:58.702Z,964.05
2022-10-27T17:27:58.896Z,964.1
2022-10-27T17:30:58.729Z,964.06
2022-10-27T17:33:58.478Z,964.1
2022-10-27T17:36:58.656Z,964.0
2022-10-27T17:39:59.187Z,964.1
2022-10-27T17:42:59.117Z,964.03
2022-10-27T17:45:59.102Z,964.18
2022-10-27T17:51:59.089Z,964.26
2022-10-27T17:54:58.934Z,964.33
2022-10-27T17:57:59.068Z,964.25
2022-10-27T18:01:26.084Z,964.29
2022-10-27T18:03:59.021Z,964.42
2022-10-27T18:06:59.490Z,964.32
2022-10-27T18:09:58.916Z,964.44
2022-10-27T18:12:59.286Z,964.38
2022-10-27T18:15:58.716Z,964.45
2022-10-27T18:18:58.812Z,964.4
2022-10-27T18:21:59.223Z,964.45
2022-10-27T18:24:58.632Z,964.47
2022-10-27T18:27:59.589Z,964.48
2022-10-27T18:30:58.745Z,964.5
2022-10-27T18:33:59.392Z,964.48
2022-10-27T18:36:58.878Z,964.42
2022-10-27T18:39:59.277Z,964.43
2022-10-27T18:43:00.406Z,964.44
2022-10-27T18:45:59.051Z,964.43
2022-10-27T18:48:59.721Z,964.4
2022-10-27T18:51:58.652Z,964.43
2022-10-27T18:54:58.886Z,964.44
2022-10-27T18:57:59.313Z,964.54
2022-10-27T19:00:59.175Z,964.48
2022-10-27T19:03:58.579Z,964.38
2022-10-27T19:06:58.977Z,964.37
2022-10-27T19:09:59.109Z,964.4
2022-10-27T19:12:59.161Z,964.38
2022-10-27T19:15:58.839Z,964.37
2022-10-27T19:18:58.403Z,964.48
2022-10-27T19:21:59.046Z,964.34
2022-10-27T19:24:58.693Z,964.36
2022-10-27T19:27:59.374Z,964.33
2022-10-27T19:30:59.829Z,964.34
2022-10-27T19:33:59.594Z,964.36
2022-10-27T19:36:59.138Z,964.36
2022-10-27T19:39:59.180Z,964.37
2022-10-27T19:42:58.758Z,964.37
2022-10-27T19:45:59.519Z,964.25
2022-10-27T19:48:59.268Z,964.28
2022-10-27T19:51:59.518Z,964.38
2022-10-27T19:54:59.121Z,964.38
2022-10-27T19:57:59.164Z,964.34
2022-10-27T20:00:59.904Z,964.38
2022-10-27T20:03:59.370Z,964.41
2022-10-27T20:06:58.386Z,964.38
2022-10-27T20:09:59.725Z,964.41
2022-10-27T20:12:59.217Z,964.37
2022-10-27T20:15:58.552Z,964.34
2022-10-27T20:18:58.264Z,964.33
2022-10-27T20:21:59.550Z,964.31
2022-10-27T20:24:58.989Z,964.36
2022-10-27T20:27:59.387Z,964.34
2022-10-27T20:30:59.339Z,964.46
2022-10-27T20:33:59.015Z,964.37
2022-10-27T20:36:58.824Z,964.33
2022-10-27T20:39:58.871Z,964.27
2022-10-27T20:42:58.817Z,964.18
2022-10-27T20:45:59.092Z,964.24
2022-10-27T20:48:58.723Z,964.23
2022-10-27T20:51:59.297Z,964.18
2022-10-27T20:54:59.574Z,964.08
2022-10-27T20:57:58.634Z,964.14
2022-10-27T21:01:00.007Z,964.11
2022-10-27T21:03:59.590Z,964.2
2022-10-27T21:06:58.553Z,964.2
2022-10-27T21:09:59.443Z,964.03
2022-10-27T21:12:59.094Z,964.07
2022-10-27T21:15:59.229Z,964.08
2022-10-27T21:18:59.359Z,964.13
2022-10-27T21:21:59.384Z,964.07
2022-10-27T21:24:59.028Z,964.2
2022-10-27T21:27:59.358Z,964.24
2022-10-27T21:30:58.573Z,964.23
2022-10-27T21:33:59.104Z,964.2
2022-10-27T21:36:58.931Z,964.23
2022-10-27T21:39:58.921Z,964.1
2022-10-27T21:42:59.725Z,964.2
2022-10-27T21:45:59.448Z,964.2
2022-10-27T21:48:58.777Z,964.29
2022-10-27T21:52:01.447Z,964.34
2022-10-27T21:54:58.730Z,964.19
2022-10-27T21:57:59.082Z,964.2
2022-10-27T22:00:59.945Z,964.21
2022-10-27T22:03:58.793Z,964.12
2022-10-27T22:06:58.943Z,964.23
2022-10-27T22:09:58.815Z,964.17
2022-10-27T22:13:00.143Z,964.14
2022-10-27T22:15:58.688Z,964.06
2022-10-27T22:18:59.273Z,964.03
2022-10-27T22:21:58.751Z,964.12
2022-10-27T22:24:59.258Z,964.03
2022-10-27T22:27:58.860Z,964.01
2022-10-27T22:30:58.729Z,964.04
2022-10-27T22:33:58.442Z,964.01
2022-10-27T22:36:58.639Z,964.01
2022-10-27T22:39:58.217Z,963.97
2022-10-27T22:42:58.574Z,963.96
2022-10-27T22:45:59.569Z,964.04
2022-10-27T22:48:58.338Z,964.06
2022-10-27T22:51:58.307Z,963.93
2022-10-27T22:54:59.032Z,963.93
2022-10-27T22:57:59.412Z,964.09
2022-10-27T23:00:58.947Z,963.99
2022-10-27T23:03:58.704Z,963.96
2022-10-27T23:06:58.890Z,964.1
2022-10-27T23:09:59.477Z,964.05
2022-10-27T23:12:58.762Z,964.08
2022-10-27T23:15:58.885Z,963.92
2022-10-27T23:18:59.030Z,964.02
2022-10-27T23:21:59.224Z,964.05
2022-10-27T23:24:58.470Z,964.05
2022-10-27T23:27:58.567Z,964.05
2022-10-27T23:30:59.444Z,964.06
2022-10-27T23:33:58.576Z,964.08
2022-10-27T23:36:58.933Z,963.92
2022-10-27T23:39:59.010Z,964.0
2022-10-27T23:42:58.717Z,964.04
2022-10-27T23:45:58.497Z,964.14
2022-10-27T23:48:59.232Z,964.1
2022-10-27T23:51:58.903Z,964.21
2022-10-27T23:54:58.369Z,964.13
2022-10-27T23:57:58.639Z,964.16
